createdAt,value
2018-12-31T00:03:31.156Z,32.70
2018-12-31T00:14:22.158Z,56.07
2018-12-31T00:19:40.626Z,76.02
2018-12-31T00:24:59.111Z,89.90
2018-12-31T00:30:17.583Z,93.57
2018-12-31T00:35:36.071Z,70.10
2018-12-31T00:40:54.670Z,62.83
2018-12-31T00:46:13.155Z,66.10
2018-12-31T00:51:31.622Z,64.97
2018-12-31T00:56:50.161Z,74.40
2018-12-31T01:07:39.092Z,84.20
2018-12-31T01:12:57.556Z,83.70
2018-12-31T01:18:16.100Z,73.93
2018-12-31T01:23:34.579Z,69.53
2018-12-31T01:28:53.203Z,61.90
2018-12-31T01:34:11.684Z,69.60
2018-12-31T01:39:30.163Z,74.87
2018-12-31T01:44:48.701Z,87.30
2018-12-31T01:55:37.703Z,88.40
2018-12-31T02:00:56.185Z,93.03
2018-12-31T02:11:47.192Z,111.63
2018-12-31T02:17:05.822Z,106.10
2018-12-31T02:22:24.662Z,99.07
2018-12-31T02:27:43.131Z,73.20
2018-12-31T02:33:01.605Z,64.07
2018-12-31T02:38:20.073Z,53.57
2018-12-31T02:43:38.554Z,38.30
2018-12-31T02:48:57.017Z,29.13
2018-12-31T02:59:46.243Z,40.63
2018-12-31T03:05:45.712Z,45.78
2018-12-31T03:11:04.261Z,44.27
2018-12-31T03:16:22.901Z,48.47
2018-12-31T03:21:41.345Z,49.80
2018-12-31T03:26:59.889Z,63.80
2018-12-31T03:32:18.378Z,61.50
2018-12-31T03:37:36.834Z,57.97
2018-12-31T03:42:55.370Z,67.07
2018-12-31T03:48:13.920Z,60.27
2018-12-31T03:53:32.397Z,81.70
2018-12-31T04:04:23.255Z,97.37
2018-12-31T04:10:01.347Z,108.92
2018-12-31T04:15:19.961Z,120.17
2018-12-31T04:20:38.506Z,129.40
2018-12-31T04:25:56.983Z,130.27
2018-12-31T04:31:15.459Z,130.23
2018-12-31T04:36:33.939Z,130.27
2018-12-31T04:41:52.490Z,159.63
2018-12-31T04:47:11.033Z,160.87
2018-12-31T04:52:29.875Z,166.90
2018-12-31T04:57:48.660Z,161.07
2018-12-31T05:03:26.475Z,176.67
2018-12-31T05:08:44.952Z,201.87
2018-12-31T05:14:03.410Z,159.00
2018-12-31T05:19:21.885Z,156.50
2018-12-31T05:24:40.350Z,154.27
2018-12-31T05:29:58.824Z,164.80
2018-12-31T05:35:37.076Z,182.57
2018-12-31T05:40:55.554Z,172.13
2018-12-31T05:46:14.037Z,180.20
2018-12-31T05:51:32.663Z,210.20
2018-12-31T05:56:51.213Z,198.30
2018-12-31T06:02:09.759Z,205.50
2018-12-31T06:07:28.239Z,198.93
2018-12-31T06:12:46.722Z,197.13
2018-12-31T06:18:05.202Z,202.37
2018-12-31T06:23:23.691Z,186.90
2018-12-31T06:34:15.089Z,198.40
2018-12-31T06:39:33.563Z,185.83
2018-12-31T06:44:52.049Z,183.37
2018-12-31T06:50:10.516Z,192.60
2018-12-31T06:55:28.987Z,187.63
2018-12-31T07:00:47.468Z,202.03
2018-12-31T07:06:05.944Z,207.57
2018-12-31T07:11:24.418Z,179.33
2018-12-31T07:16:42.888Z,210.30
2018-12-31T07:22:01.366Z,191.97
2018-12-31T07:27:19.845Z,194.97
2018-12-31T07:32:38.412Z,178.97
2018-12-31T07:37:56.950Z,185.80
2018-12-31T07:43:15.433Z,185.47
2018-12-31T07:48:33.920Z,192.87
2018-12-31T07:53:52.461Z,179.57
2018-12-31T07:59:10.932Z,192.73
2018-12-31T08:04:29.481Z,189.13
2018-12-31T08:09:48.113Z,181.27
2018-12-31T08:15:46.944Z,178.90
2018-12-31T08:21:05.494Z,180.17
2018-12-31T08:26:24.258Z,179.57
2018-12-31T08:31:42.741Z,165.22
2018-12-31T08:37:01.252Z,155.50
2018-12-31T08:42:19.794Z,139.57
2018-12-31T08:47:38.275Z,138.23
2018-12-31T08:52:56.746Z,118.57
2018-12-31T08:58:15.223Z,129.10
2018-12-31T09:03:33.712Z,112.00
2018-12-31T09:08:52.281Z,116.60
2018-12-31T09:14:10.868Z,105.70
2018-12-31T09:19:29.336Z,135.70
2018-12-31T09:24:47.886Z,127.20
2018-12-31T09:30:06.497Z,130.20
2018-12-31T09:35:25.402Z,127.07
2018-12-31T09:40:43.852Z,97.27
2018-12-31T09:46:02.397Z,89.33
2018-12-31T09:51:20.862Z,88.80
2018-12-31T09:56:39.337Z,71.90
2018-12-31T10:01:57.797Z,84.63
2018-12-31T10:07:16.766Z,117.80
2018-12-31T10:12:35.239Z,130.03
2018-12-31T10:23:50.871Z,114.57
2018-12-31T10:29:09.355Z,113.50
2018-12-31T10:34:29.727Z,120.80
2018-12-31T10:39:48.236Z,117.87
2018-12-31T10:45:26.064Z,125.07
2018-12-31T10:50:44.605Z,140.53
2018-12-31T10:56:03.076Z,98.40
2018-12-31T11:01:21.555Z,112.28
2018-12-31T11:06:40.103Z,108.60
2018-12-31T11:11:58.587Z,106.13
2018-12-31T11:17:17.579Z,136.57
2018-12-31T11:22:36.058Z,126.07
2018-12-31T11:27:54.526Z,98.17
2018-12-31T11:33:32.340Z,111.03
2018-12-31T11:38:50.812Z,108.60
2018-12-31T11:44:09.291Z,109.80
2018-12-31T11:49:27.758Z,101.70
2018-12-31T11:54:46.494Z,96.50
2018-12-31T12:00:44.867Z,107.60
2018-12-31T12:06:03.340Z,114.07
2018-12-31T12:11:21.885Z,102.63
2018-12-31T12:16:40.428Z,122.90
2018-12-31T12:22:00.634Z,121.97
2018-12-31T12:27:19.178Z,110.80
2018-12-31T12:32:37.661Z,105.63
2018-12-31T12:37:56.125Z,106.97
2018-12-31T12:43:14.600Z,103.57
2018-12-31T12:48:33.081Z,91.90
2018-12-31T12:53:51.699Z,93.90
2018-12-31T12:59:12.141Z,111.63
2018-12-31T13:04:30.613Z,122.03
2018-12-31T13:09:49.167Z,140.17
2018-12-31T13:15:07.709Z,129.00
2018-12-31T13:20:26.248Z,124.60
2018-12-31T13:25:44.795Z,136.00
2018-12-31T13:31:03.381Z,130.13
2018-12-31T13:36:25.191Z,122.73
2018-12-31T13:41:43.775Z,105.43
2018-12-31T13:52:32.771Z,113.60
2018-12-31T13:57:53.028Z,137.30
2018-12-31T14:03:17.235Z,135.33
2018-12-31T14:08:32.070Z,131.73
2018-12-31T14:14:04.402Z,139.60
2018-12-31T14:19:22.893Z,129.20
2018-12-31T14:25:02.549Z,125.63
2018-12-31T14:30:21.026Z,112.70
2018-12-31T14:35:45.706Z,126.97
2018-12-31T14:40:59.765Z,121.43
2018-12-31T14:46:20.053Z,125.93
2018-12-31T14:51:38.534Z,123.40
2018-12-31T14:56:57.004Z,121.13
2018-12-31T15:02:15.566Z,132.83
2018-12-31T15:07:34.184Z,121.27
2018-12-31T15:12:52.663Z,116.20
2018-12-31T15:18:11.359Z,116.60
2018-12-31T15:23:29.947Z,109.52
2018-12-31T15:28:48.612Z,108.47
2018-12-31T15:34:26.498Z,104.53
2018-12-31T15:39:44.991Z,106.03
2018-12-31T15:45:45.697Z,110.57
2018-12-31T15:51:04.234Z,99.40
2018-12-31T15:56:22.893Z,91.97
2018-12-31T16:01:41.437Z,95.33
2018-12-31T16:12:32.423Z,87.03
2018-12-31T16:17:52.623Z,100.50
2018-12-31T16:23:11.164Z,93.30
2018-12-31T16:28:29.759Z,92.27
2018-12-31T16:33:48.233Z,78.30
2018-12-31T16:39:46.605Z,77.93
2018-12-31T16:45:45.794Z,91.27
2018-12-31T16:51:04.450Z,106.07
2018-12-31T16:56:23.231Z,87.37
2018-12-31T17:01:41.709Z,83.47
2018-12-31T17:07:00.255Z,89.70
2018-12-31T17:12:18.721Z,86.73
2018-12-31T17:17:37.204Z,81.57
2018-12-31T17:28:26.194Z,89.27
2018-12-31T17:33:44.671Z,84.63
2018-12-31T17:39:03.370Z,88.70
2018-12-31T17:44:21.840Z,101.80
2018-12-31T17:55:10.953Z,88.90
2018-12-31T18:00:29.423Z,98.50
2018-12-31T18:05:47.980Z,78.90
2018-12-31T18:11:06.511Z,80.47
2018-12-31T18:16:24.988Z,92.30
2018-12-31T18:27:14.053Z,79.67
2018-12-31T18:32:32.528Z,78.80
2018-12-31T18:37:51.014Z,72.43
2018-12-31T18:43:09.561Z,83.53
2018-12-31T18:48:28.103Z,81.83
2018-12-31T18:53:46.724Z,87.37
2018-12-31T18:59:05.276Z,90.27
2018-12-31T19:04:23.814Z,88.10
2018-12-31T19:09:44.439Z,83.67
2018-12-31T19:15:03.421Z,69.87
2018-12-31T19:20:21.885Z,60.70
2018-12-31T19:25:40.364Z,65.70
2018-12-31T19:30:58.891Z,62.27
2018-12-31T19:36:17.441Z,61.40
2018-12-31T19:41:36.054Z,50.77
2018-12-31T19:46:54.539Z,58.93
2018-12-31T19:52:13.026Z,66.83
2018-12-31T19:57:31.580Z,69.90
2018-12-31T20:02:50.059Z,62.87
2018-12-31T20:08:08.538Z,75.90
2018-12-31T20:13:27.005Z,77.43
2018-12-31T20:18:47.234Z,74.63
2018-12-31T20:24:05.851Z,71.07
2018-12-31T20:29:24.379Z,69.00
2018-12-31T20:34:42.869Z,66.42
2018-12-31T20:40:01.431Z,64.50
2018-12-31T20:45:19.971Z,71.53
2018-12-31T20:50:40.312Z,82.30
2018-12-31T20:55:58.851Z,73.83
2018-12-31T21:01:17.622Z,90.53
2018-12-31T21:06:36.094Z,76.77
2018-12-31T21:11:54.693Z,71.70
2018-12-31T21:17:13.170Z,76.83
2018-12-31T21:28:04.568Z,70.63
2018-12-31T21:33:23.078Z,73.97
2018-12-31T21:38:41.880Z,60.47
2018-12-31T21:44:00.342Z,69.53
2018-12-31T21:49:18.807Z,70.35
2018-12-31T21:54:37.345Z,73.27
2018-12-31T21:59:55.825Z,89.75
2018-12-31T22:05:33.709Z,80.12
2018-12-31T22:10:52.270Z,82.33
2018-12-31T22:16:10.887Z,92.87
2018-12-31T22:21:29.412Z,92.10
2018-12-31T22:26:47.996Z,111.17
2018-12-31T22:32:06.751Z,105.17
2018-12-31T22:37:25.218Z,113.00
2018-12-31T22:48:16.236Z,108.90
2018-12-31T22:53:34.780Z,117.90
2018-12-31T22:58:53.327Z,115.47
2018-12-31T23:04:11.914Z,445.90
2018-12-31T23:09:30.412Z,389.30
2018-12-31T23:14:48.912Z,828.00
2018-12-31T23:20:49.081Z,597.77
2018-12-31T23:26:07.562Z,292.90
2018-12-31T23:36:58.317Z,153.00
2018-12-31T23:42:16.862Z,182.07
2018-12-31T23:47:35.345Z,170.80
2018-12-31T23:52:53.938Z,118.50
2018-12-31T23:58:12.481Z,115.53
